Time,TemperatureF,DewpointF,PressureIn,WindDirection,WindDirectionDegrees,WindSpeedMPH,WindSpeedGustMPH,Humidity,HourlyPrecipIn,Conditions,Clouds,dailyrainin,SoftwareType,DateUTC
2013-05-17 05:34:00,59.2,54.0,29.65,East,96,7.5,16.0,83,0.01,RA,SKC,0.01,WeatherDisplay:10.37,2013-05-17 10:34:00,
2013-05-17 05:39:00,59.0,53.8,29.64,East,98,12.0,17.3,83,0.03,RA,SKC,0.03,WeatherDisplay:10.37,2013-05-17 10:39:00,
2013-05-17 05:44:00,58.9,53.7,29.64,SE,134,13.2,20.7,83,0.05, +RA,SKC,0.05,WeatherDisplay:10.37,2013-05-17 10:44:00,
2013-05-17 05:49:00,58.2,52.7,29.64,SE,126,15.2,20.0,82,0.06, +RA,SKC,0.06,WeatherDisplay:10.37,2013-05-17 10:49:00,
2013-05-17 05:54:00,57.7,52.2,29.63,ESE,112,14.8,19.6,82,0.07, +RA,SKC,0.07,WeatherDisplay:10.37,2013-05-17 10:54:00,
2013-05-17 05:59:00,57.2,51.8,29.64,ESE,115,13.6,21.0,82,0.08, +RA,SKC,0.09,WeatherDisplay:10.37,2013-05-17 10:59:00,
2013-05-17 06:04:00,56.9,51.5,29.64,ESE,115,13.7,18.4,82,0.10,RA,SKC,0.10,WeatherDisplay:10.37,2013-05-17 11:04:00,
2013-05-17 06:09:00,56.7,51.3,29.64,ESE,110,9.7,19.6,82,0.11,RA,SKC,0.11,WeatherDisplay:10.37,2013-05-17 11:09:00,
2013-05-17 06:14:00,56.6,51.2,29.64,SE,144,10.3,18.4,82,0.12,RA,SKC,0.12,WeatherDisplay:10.37,2013-05-17 11:14:00,
2013-05-17 06:19:00,56.6,51.2,29.64,SE,134,13.4,19.0,82,0.13,RA,SKC,0.13,WeatherDisplay:10.37,2013-05-17 11:19:00,
2013-05-17 06:24:00,56.6,51.5,29.64,SE,127,13.7,19.6,83,0.14,RA,SKC,0.14,WeatherDisplay:10.37,2013-05-17 11:24:00,
2013-05-17 06:29:00,56.6,51.5,29.64,SE,127,11.2,16.1,83,0.15,RA,SKC,0.15,WeatherDisplay:10.37,2013-05-17 11:29:00,
2013-05-17 06:34:00,56.7,51.6,29.64,ESE,111,10.9,16.0,83,0.15,RA,SKC,0.15,WeatherDisplay:10.37,2013-05-17 11:34:00,
2013-05-17 06:39:00,56.7,51.6,29.64,East,94,10.4,15.0,83,0.13,RA,SKC,0.16,WeatherDisplay:10.37,2013-05-17 11:39:00,
2013-05-17 06:44:00,56.7,51.6,29.64,East,93,8.4,12.7,83,0.13,RA,SKC,0.17,WeatherDisplay:10.37,2013-05-17 11:44:00,
2013-05-17 06:49:00,56.6,51.5,29.64,SE,140,10.5,17.3,83,0.12,RA,SKC,0.17,WeatherDisplay:10.37,2013-05-17 11:49:00,
2013-05-17 06:54:00,56.6,51.5,29.64,ESE,108,9.5,13.0,83,0.11,RA,SKC,0.18,WeatherDisplay:10.37,2013-05-17 11:54:00,
2013-05-17 06:59:00,56.6,51.5,29.64,ESE,121,8.6,13.8,83,0.10,RA,SKC,0.18,WeatherDisplay:10.37,2013-05-17 11:59:00,
2013-05-17 07:04:00,56.6,51.5,29.65,SE,138,9.3,13.8,83,0.09,RA,SKC,0.19,WeatherDisplay:10.37,2013-05-17 12:04:00,
2013-05-17 07:09:00,56.6,51.5,29.65,ESE,116,8.0,13.8,83,0.82,RA,SKC,0.93,WeatherDisplay:10.37,2013-05-17 12:09:00,
2013-05-17 07:14:00,56.6,51.5,29.65,ESE,106,8.8,12.0,83,0.85,RA,SKC,0.96,WeatherDisplay:10.37,2013-05-17 12:14:00,
2013-05-17 07:19:00,56.7,51.6,29.66,ESE,123,8.9,11.5,83,0.84,RA,SKC,0.97,WeatherDisplay:10.37,2013-05-17 12:19:00,
2013-05-17 07:24:00,56.6,51.5,29.65,East,90,10.6,16.1,83,0.85,-RA,SKC,0.98,WeatherDisplay:10.37,2013-05-17 12:24:00,
2013-05-17 07:29:00,56.5,51.1,29.65,ESE,120,10.0,17.3,82,0.84,-RA,SKC,0.98,WeatherDisplay:10.37,2013-05-17 12:29:00,
2013-05-17 07:34:00,56.4,51.0,29.66,East,98,12.9,16.1,82,0.84,-RA,SKC,0.99,WeatherDisplay:10.37,2013-05-17 12:34:00,
2013-05-17 07:39:00,56.3,50.9,29.66,SE,126,11.3,15.0,82,0.84,-RA,SKC,1.00,WeatherDisplay:10.37,2013-05-17 12:39:00,
2013-05-17 07:44:00,56.0,50.6,29.66,SE,132,11.8,17.0,82,0.84,RA,SKC,1.00,WeatherDisplay:10.37,2013-05-17 12:44:00,
2013-05-17 07:49:00,55.8,50.4,29.66,ESE,105,10.7,16.1,82,0.83,RA,SKC,1.00,WeatherDisplay:10.37,2013-05-17 12:49:00,
2013-05-17 07:54:00,55.5,50.1,29.67,ESE,109,9.6,15.0,82,0.84,RA,SKC,1.01,WeatherDisplay:10.37,2013-05-17 12:54:00,
2013-05-17 07:59:00,55.3,49.9,29.67,ESE,123,11.7,16.1,82,0.84,RA,SKC,1.03,WeatherDisplay:10.37,2013-05-17 12:59:00,
2013-05-17 08:04:00,54.9,49.5,29.67,SE,126,11.4,16.0,82,0.91,RA,SKC,1.10,WeatherDisplay:10.37,2013-05-17 13:04:00,
2013-05-17 08:09:00,54.5,49.1,29.67,SE,129,10.9,18.0,82,0.19,RA,SKC,1.11,WeatherDisplay:10.37,2013-05-17 13:09:00,
2013-05-17 08:14:00,54.3,48.9,29.67,SE,130,12.2,18.4,82,0.17,RA,SKC,1.13,WeatherDisplay:10.37,2013-05-17 13:14:00,
2013-05-17 08:19:00,54.1,48.7,29.66,SE,128,14.0,19.6,82,0.18,RA,SKC,1.14,WeatherDisplay:10.37,2013-05-17 13:19:00,
2013-05-17 08:24:00,54.0,48.6,29.66,ESE,114,13.1,18.4,82,0.16,RA,SKC,1.14,WeatherDisplay:10.37,2013-05-17 13:24:00,
2013-05-17 08:29:00,53.9,48.9,29.66,ESE,123,15.1,21.9,83,0.16,OVC,SKC,1.14,WeatherDisplay:10.37,2013-05-17 13:29:00,
2013-05-17 08:34:00,53.7,48.3,29.66,SSE,147,13.3,21.9,82,0.16,RA,SKC,1.15,WeatherDisplay:10.37,2013-05-17 13:34:00,
2013-05-17 08:39:00,53.7,48.7,29.66,SE,132,14.3,20.7,83,0.16,RA,SKC,1.15,WeatherDisplay:10.37,2013-05-17 13:39:00,
2013-05-17 08:44:00,53.8,48.8,29.66,SE,142,12.8,17.0,83,0.15,BKN,SKC,1.15,WeatherDisplay:10.37,2013-05-17 13:44:00,
2013-05-17 08:49:00,53.7,48.7,29.66,SSE,149,14.2,18.0,83,0.15,BKN,SKC,1.15,WeatherDisplay:10.37,2013-05-17 13:49:00,
2013-05-17 08:54:00,53.8,48.8,29.66,SE,131,9.9,15.0,83,0.14,BKN,SKC,1.15,WeatherDisplay:10.37,2013-05-17 13:54:00,
2013-05-17 08:59:00,53.9,48.9,29.67,ESE,123,13.7,16.1,83,0.13,BKN,SKC,1.15,WeatherDisplay:10.37,2013-05-17 13:59:00,
2013-05-17 09:04:00,53.8,48.8,29.66,SE,138,16.6,21.0,83,0.06,SCT,SKC,1.16,WeatherDisplay:10.37,2013-05-17 14:04:00,
2013-05-17 09:09:00,53.7,48.7,29.66,SE,126,13.9,19.6,83,0.05,RA,SKC,1.16,WeatherDisplay:10.37,2013-05-17 14:09:00,
2013-05-17 09:14:00,53.6,48.6,29.66,SSE,150,17.3,23.0,83,0.05,RA,SKC,1.18,WeatherDisplay:10.37,2013-05-17 14:14:00,
2013-05-17 09:19:00,53.5,48.5,29.66,SE,129,14.1,20.7,83,0.04,RA,SKC,1.18,WeatherDisplay:10.37,2013-05-17 14:19:00,
2013-05-17 09:24:00,53.5,48.5,29.66,SE,135,14.7,19.6,83,0.04,SCT,SKC,1.18,WeatherDisplay:10.37,2013-05-17 14:24:00,
2013-05-17 09:56:00,55.7,50.6,29.66,SSE,149,15.6,21.0,83,0.04,SCT,SKC,1.19,WeatherDisplay:10.37,2013-05-17 14:56:00,
2013-05-17 10:01:00,56.0,50.9,29.65,SE,146,14.3,19.0,83,0.04,SCT,SKC,1.19,WeatherDisplay:10.37,2013-05-17 15:01:00,
2013-05-17 10:06:00,56.7,51.6,29.66,SSE,147,15.0,21.9,83,0.03,BKN,SKC,1.19,WeatherDisplay:10.37,2013-05-17 15:06:00,
2013-05-17 10:11:00,56.9,51.5,29.66,SSE,153,15.8,20.0,82,0.03,BKN,SKC,1.19,WeatherDisplay:10.37,2013-05-17 15:11:00,
2013-05-17 10:16:00,57.0,51.6,29.66,SE,128,15.8,21.0,82,0.01,BKN,SKC,1.19,WeatherDisplay:10.37,2013-05-17 15:16:00,
2013-05-17 10:21:00,57.0,51.2,29.66,SSE,148,12.3,19.6,81,0.01,BKN,SKC,1.19,WeatherDisplay:10.37,2013-05-17 15:21:00,
2013-05-17 10:26:00,57.0,51.2,29.67,SSE,150,13.4,17.3,81,0.01,BKN,SKC,1.19,WeatherDisplay:10.37,2013-05-17 15:26:00,
2013-05-17 10:31:00,56.9,51.1,29.67,SSE,153,14.1,17.3,81,0.00,BKN,SKC,1.19,WeatherDisplay:10.37,2013-05-17 15:31:00,
2013-05-17 10:36:00,56.9,51.1,29.68,SE,130,12.1,16.1,81,0.00,BKN,SKC,1.19,WeatherDisplay:10.37,2013-05-17 15:36:00,
2013-05-17 10:41:00,56.9,51.1,29.69,East,98,5.0,9.2,81,0.00,BKN,SKC,1.19,WeatherDisplay:10.37,2013-05-17 15:41:00,
2013-05-17 10:46:00,57.0,51.2,29.71,NNE,13,2.9,5.8,81,0.00,BKN,SKC,1.19,WeatherDisplay:10.37,2013-05-17 15:46:00,
2013-05-17 10:51:00,57.0,51.2,29.72,NNE,25,6.4,10.0,81,0.00,BKN,SKC,1.19,WeatherDisplay:10.37,2013-05-17 15:51:00,
2013-05-17 10:56:00,57.0,50.9,29.71,NE,53,4.0,9.2,80,0.00,BKN,SKC,1.19,WeatherDisplay:10.37,2013-05-17 15:56:00,
2013-05-17 11:01:00,56.9,51.1,29.69,ENE,78,5.6,8.0,81,0.01,RA,SKC,1.20,WeatherDisplay:10.37,2013-05-17 16:01:00,
2013-05-17 11:06:00,56.8,51.0,29.69,East,84,4.9,8.1,81,0.04,-RA,SKC,1.23,WeatherDisplay:10.37,2013-05-17 16:06:00,
2013-05-17 11:11:00,56.9,51.1,29.70,ENE,61,4.5,6.9,81,0.04,-RA,SKC,1.23,WeatherDisplay:10.37,2013-05-17 16:11:00,
2013-05-17 11:17:00,57.0,51.6,29.70,ESE,104,6.1,11.5,82,0.04,-RA,SKC,1.23,WeatherDisplay:10.37,2013-05-17 16:17:00,
2013-05-17 11:22:00,57.1,51.7,29.69,ESE,103,7.9,13.0,82,0.04,OVC,SKC,1.23,WeatherDisplay:10.37,2013-05-17 16:22:00,
2013-05-17 11:27:00,57.2,51.8,29.69,ESE,103,10.7,14.0,82,0.04,OVC,SKC,1.23,WeatherDisplay:10.37,2013-05-17 16:27:00,
2013-05-17 11:32:00,57.2,51.8,29.70,East,98,9.8,12.0,82,0.04,OVC,SKC,1.23,WeatherDisplay:10.37,2013-05-17 16:32:00,
2013-05-17 11:37:00,57.1,51.7,29.70,East,88,8.9,13.8,82,0.05,RA,SKC,1.24,WeatherDisplay:10.37,2013-05-17 16:37:00,
2013-05-17 11:42:00,57.1,51.7,29.70,ESE,113,8.9,13.0,82,0.05,-DZ,SKC,1.24,WeatherDisplay:10.37,2013-05-17 16:42:00,
2013-05-17 11:47:00,57.0,51.6,29.69,ESE,105,10.6,14.0,82,0.05,-DZ,SKC,1.24,WeatherDisplay:10.37,2013-05-17 16:47:00,
2013-05-17 11:52:00,57.1,52.0,29.70,SE,124,9.6,12.0,83,0.05,-DZ,SKC,1.24,WeatherDisplay:10.37,2013-05-17 16:52:00,
2013-05-17 11:57:00,57.2,51.8,29.69,ESE,107,10.4,12.7,82,0.05,-DZ,SKC,1.24,WeatherDisplay:10.37,2013-05-17 16:57:00,
2013-05-17 12:02:00,57.2,51.8,29.70,SE,132,8.3,13.0,82,0.04, +RA,SKC,1.24,WeatherDisplay:10.37,2013-05-17 17:02:00,
2013-05-17 12:07:00,57.1,51.7,29.71,SE,144,5.6,9.2,82,0.01, +RA,SKC,1.24,WeatherDisplay:10.37,2013-05-17 17:07:00,
2013-05-17 12:12:00,56.9,51.5,29.70,SE,127,7.3,9.2,82,0.08, +RA,SKC,1.32,WeatherDisplay:10.37,2013-05-17 17:12:00,
2013-05-17 12:17:00,56.7,51.3,29.70,ESE,113,9.8,13.0,82,0.11, +RA,SKC,1.34,WeatherDisplay:10.37,2013-05-17 17:17:00,
2013-05-17 12:22:00,56.6,51.2,29.70,East,100,10.2,16.1,82,0.15, +RA,SKC,1.38,WeatherDisplay:10.37,2013-05-17 17:22:00,
2013-05-17 12:27:00,56.4,51.0,29.69,ESE,102,11.5,13.8,82,0.17, +RA,SKC,1.41,WeatherDisplay:10.37,2013-05-17 17:27:00,
2013-05-17 12:32:00,56.3,50.9,29.69,SE,140,11.7,16.1,82,0.22, +RA,SKC,1.46,WeatherDisplay:10.37,2013-05-17 17:32:00,
2013-05-17 12:37:00,56.1,50.7,29.69,East,101,9.9,16.1,82,0.22, +RA,SKC,1.46,WeatherDisplay:10.37,2013-05-17 17:37:00,
2013-05-17 12:42:00,56.1,51.0,29.69,SE,129,14.3,19.0,83,0.24, +RA,SKC,1.48,WeatherDisplay:10.37,2013-05-17 17:42:00,
2013-05-17 12:47:00,56.0,50.9,29.69,SE,130,10.2,14.0,83,0.24, +RA,SKC,1.48,WeatherDisplay:10.37,2013-05-17 17:47:00,
2013-05-17 12:52:00,55.9,50.8,29.69,SSE,151,9.9,12.0,83,0.24, +RA,SKC,1.48,WeatherDisplay:10.37,2013-05-17 17:52:00,
2013-05-17 12:57:00,55.9,50.8,29.69,SE,140,9.8,12.7,83,0.24, +RA,SKC,1.48,WeatherDisplay:10.37,2013-05-17 17:57:00,
2013-05-17 13:02:00,55.9,50.8,29.69,SE,134,10.8,14.0,83,0.24, +RA,SKC,1.48,WeatherDisplay:10.37,2013-05-17 18:02:00,
2013-05-17 13:07:00,56.0,50.9,29.69,SE,136,11.9,14.0,83,0.25, +RA,SKC,1.49,WeatherDisplay:10.37,2013-05-17 18:07:00,
2013-05-17 13:12:00,55.9,50.8,29.69,SE,134,12.2,16.1,83,0.18, +RA,SKC,1.49,WeatherDisplay:10.37,2013-05-17 18:12:00,
2013-05-17 13:17:00,56.0,50.9,29.69,SE,145,12.3,15.0,83,0.16, +RA,SKC,1.50,WeatherDisplay:10.37,2013-05-17 18:17:00,
2013-05-17 13:22:00,55.9,50.8,29.69,SSE,154,13.3,17.3,83,0.12, +RA,SKC,1.50,WeatherDisplay:10.37,2013-05-17 18:22:00,
2013-05-17 13:27:00,56.0,50.9,29.69,SE,129,11.5,15.0,83,0.10, +RA,SKC,1.50,WeatherDisplay:10.37,2013-05-17 18:27:00,
2013-05-17 13:32:00,56.0,50.9,29.69,SE,140,11.5,16.1,83,0.06, +RA,SKC,1.51,WeatherDisplay:10.37,2013-05-17 18:32:00,
2013-05-17 13:37:00,56.2,51.1,29.69,SSE,153,11.4,16.1,83,0.06, +RA,SKC,1.52,WeatherDisplay:10.37,2013-05-17 18:37:00,
2013-05-17 13:42:00,56.4,51.3,29.69,SE,129,10.0,14.0,83,0.04,-RA,SKC,1.52,WeatherDisplay:10.37,2013-05-17 18:42:00,
2013-05-17 13:47:00,56.7,51.6,29.69,SE,133,9.7,13.0,83,0.04,-RA,SKC,1.52,WeatherDisplay:10.37,2013-05-17 18:47:00,
2013-05-17 13:52:00,57.0,51.9,29.69,SE,135,10.0,13.0,83,0.04,-RA,SKC,1.52,WeatherDisplay:10.37,2013-05-17 18:52:00,
2013-05-17 13:57:00,57.4,52.3,29.69,SSE,159,10.5,15.0,83,0.04,-RA,SKC,1.52,WeatherDisplay:10.37,2013-05-17 18:57:00,
2013-05-17 14:02:00,57.9,53.1,29.69,ESE,115,8.7,12.7,84,0.04,CLR,SKC,1.52,WeatherDisplay:10.37,2013-05-17 19:02:00,
2013-05-17 14:07:00,58.0,53.2,29.69,ESE,115,9.6,13.0,84,0.03,CLR,SKC,1.52,WeatherDisplay:10.37,2013-05-17 19:07:00,
2013-05-17 14:12:00,58.0,52.9,29.69,SE,124,12.9,16.0,83,0.03,CLR,SKC,1.52,WeatherDisplay:10.37,2013-05-17 19:12:00,
2013-05-17 14:17:00,58.3,53.2,29.69,SE,134,12.0,17.3,83,0.02,CLR,SKC,1.52,WeatherDisplay:10.37,2013-05-17 19:17:00,
2013-05-17 14:22:00,58.8,53.6,29.68,ESE,118,10.8,15.0,83,0.02,CLR,SKC,1.52,WeatherDisplay:10.37,2013-05-17 19:22:00,
2013-05-17 14:27:00,59.3,54.1,29.68,SE,146,13.1,17.0,83,0.02,CLR,SKC,1.52,WeatherDisplay:10.37,2013-05-17 19:27:00,
2013-05-17 14:32:00,59.7,54.2,29.68,SE,140,15.5,19.6,82,0.01,CLR,SKC,1.52,WeatherDisplay:10.37,2013-05-17 19:32:00,
2013-05-17 14:37:00,60.1,54.2,29.68,ESE,107,12.9,18.4,81,0.00,CLR,SKC,1.52,WeatherDisplay:10.37,2013-05-17 19:37:00,
2013-05-17 14:42:00,60.2,54.3,29.68,ESE,122,11.1,15.0,81,0.00,CLR,SKC,1.52,WeatherDisplay:10.37,2013-05-17 19:42:00,
2013-05-17 14:47:00,60.4,54.2,29.68,ESE,103,12.5,17.3,80,0.00,CLR,SKC,1.52,WeatherDisplay:10.37,2013-05-17 19:47:00,
2013-05-17 14:52:00,60.1,53.9,29.68,SE,129,12.2,17.0,80,0.00,CLR,SKC,1.52,WeatherDisplay:10.37,2013-05-17 19:52:00,
2013-05-17 14:57:00,60.2,54.3,29.68,SE,128,11.6,14.0,81,0.00,CLR,SKC,1.52,WeatherDisplay:10.37,2013-05-17 19:57:00,
2013-05-17 15:02:00,60.3,53.8,29.68,SE,144,12.6,16.1,79,0.00,CLR,SKC,1.52,WeatherDisplay:10.37,2013-05-17 20:02:00,
2013-05-17 15:07:00,59.9,53.7,29.68,ESE,106,7.4,13.8,80,0.00,CLR,SKC,1.52,WeatherDisplay:10.37,2013-05-17 20:07:00,
2013-05-17 15:12:00,60.2,54.3,29.68,ESE,108,8.7,13.8,81,0.00,CLR,SKC,1.52,WeatherDisplay:10.37,2013-05-17 20:12:00,
2013-05-17 15:17:00,60.7,54.8,29.68,East,100,7.3,14.0,81,0.00,CLR,SKC,1.52,WeatherDisplay:10.37,2013-05-17 20:17:00,
2013-05-17 15:22:00,60.9,55.0,29.67,ESE,119,10.1,14.0,81,0.00,SCT,SKC,1.52,WeatherDisplay:10.37,2013-05-17 20:22:00,
2013-05-17 15:27:00,61.6,55.4,29.67,ESE,113,10.5,16.0,80,0.00,SCT,SKC,1.52,WeatherDisplay:10.37,2013-05-17 20:27:00,
2013-05-17 15:32:00,61.7,55.5,29.67,SE,142,7.5,12.7,80,0.00,SCT,SKC,1.52,WeatherDisplay:10.37,2013-05-17 20:32:00,
2013-05-17 15:37:00,62.0,55.8,29.67,ESE,115,10.2,13.0,80,0.00,SCT,SKC,1.52,WeatherDisplay:10.37,2013-05-17 20:37:00,
2013-05-17 15:42:00,61.9,55.3,29.67,SE,132,9.0,13.8,79,0.00,SCT,SKC,1.52,WeatherDisplay:10.37,2013-05-17 20:42:00,
2013-05-17 15:47:00,62.0,55.8,29.67,ESE,114,8.5,13.0,80,0.00,SCT,SKC,1.52,WeatherDisplay:10.37,2013-05-17 20:47:00,
2013-05-17 15:52:00,62.2,56.0,29.67,ESE,118,7.2,12.7,80,0.00,SCT,SKC,1.52,WeatherDisplay:10.37,2013-05-17 20:52:00,
2013-05-17 15:57:00,62.9,56.6,29.66,ESE,115,8.1,12.7,80,0.00,SCT,SKC,1.52,WeatherDisplay:10.37,2013-05-17 20:57:00,
2013-05-17 16:02:00,64.0,57.4,29.66,SE,135,11.1,16.1,79,0.00,CLR,SKC,1.52,WeatherDisplay:10.37,2013-05-17 21:02:00,
2013-05-17 16:07:00,64.4,57.7,29.66,ESE,115,9.4,15.0,79,0.00,CLR,SKC,1.52,WeatherDisplay:10.37,2013-05-17 21:07:00,
2013-05-17 16:12:00,64.9,57.9,29.66,ESE,119,9.7,14.0,78,0.00,CLR,SKC,1.52,WeatherDisplay:10.37,2013-05-17 21:12:00,
2013-05-17 16:17:00,65.0,58.0,29.66,ESE,103,8.1,13.0,78,0.00,CLR,SKC,1.52,WeatherDisplay:10.37,2013-05-17 21:17:00,
2013-05-17 16:22:00,65.4,58.4,29.67,SSE,147,12.3,16.0,78,0.00,CLR,SKC,1.52,WeatherDisplay:10.37,2013-05-17 21:22:00,
2013-05-17 16:27:00,65.9,58.5,29.67,SSE,147,12.7,15.0,77,0.00,CLR,SKC,1.52,WeatherDisplay:10.37,2013-05-17 21:27:00,
2013-05-17 16:32:00,65.8,57.7,29.67,ESE,103,13.0,18.4,75,0.00,CLR,SKC,1.52,WeatherDisplay:10.37,2013-05-17 21:32:00,
2013-05-17 16:37:00,65.5,57.7,29.67,SE,132,9.7,13.0,76,0.00,CLR,SKC,1.52,WeatherDisplay:10.37,2013-05-17 21:37:00,
2013-05-17 16:42:00,65.3,57.9,29.67,SE,136,7.5,11.5,77,0.00,CLR,SKC,1.52,WeatherDisplay:10.37,2013-05-17 21:42:00,
2013-05-17 16:47:00,65.6,58.2,29.67,SE,134,10.3,15.0,77,0.00,CLR,SKC,1.52,WeatherDisplay:10.37,2013-05-17 21:47:00,
2013-05-17 16:52:00,66.0,58.6,29.67,SE,130,8.9,12.7,77,0.00,CLR,SKC,1.52,WeatherDisplay:10.37,2013-05-17 21:52:00,
2013-05-17 16:57:00,66.3,58.5,29.67,SE,128,8.9,13.0,76,0.00,CLR,SKC,1.52,WeatherDisplay:10.37,2013-05-17 21:57:00,
2013-05-17 17:02:00,66.6,58.4,29.67,SE,132,9.3,12.0,75,0.00,SCT,SKC,1.52,WeatherDisplay:10.37,2013-05-17 22:02:00,
2013-05-17 17:07:00,66.3,58.1,29.67,SE,137,8.6,12.0,75,0.00,SCT,SKC,1.52,WeatherDisplay:10.37,2013-05-17 22:07:00,
2013-05-17 17:12:00,66.2,58.4,29.66,ESE,113,8.9,14.0,76,0.00,SCT,SKC,1.52,WeatherDisplay:10.37,2013-05-17 22:12:00,
2013-05-17 17:17:00,66.2,58.0,29.66,SE,129,10.7,15.0,75,0.00,SCT,SKC,1.52,WeatherDisplay:10.37,2013-05-17 22:17:00,
2013-05-17 17:22:00,65.9,58.1,29.66,SE,131,9.4,15.0,76,0.00,CLR,SKC,1.52,WeatherDisplay:10.37,2013-05-17 22:22:00,
2013-05-17 17:27:00,65.8,58.0,29.66,SE,128,8.0,11.5,76,0.00,CLR,SKC,1.52,WeatherDisplay:10.37,2013-05-17 22:27:00,
2013-05-17 17:32:00,65.6,57.8,29.66,SE,146,9.0,12.0,76,0.00,CLR,SKC,1.52,WeatherDisplay:10.37,2013-05-17 22:32:00,
2013-05-17 17:37:00,65.6,58.2,29.67,SE,132,7.2,9.2,77,0.00,CLR,SKC,1.52,WeatherDisplay:10.37,2013-05-17 22:37:00,
2013-05-17 17:42:00,65.7,57.9,29.67,ESE,120,7.7,11.5,76,0.00,CLR,SKC,1.52,WeatherDisplay:10.37,2013-05-17 22:42:00,
2013-05-17 17:47:00,65.7,57.6,29.66,ESE,123,7.7,10.4,75,0.00,CLR,SKC,1.52,WeatherDisplay:10.37,2013-05-17 22:47:00,
2013-05-17 17:52:00,65.7,57.9,29.66,SE,138,5.5,10.4,76,0.00,CLR,SKC,1.52,WeatherDisplay:10.37,2013-05-17 22:52:00,
2013-05-17 17:57:00,65.8,58.0,29.66,SSE,163,6.5,12.7,76,0.00,CLR,SKC,1.52,WeatherDisplay:10.37,2013-05-17 22:57:00,
2013-05-17 18:02:00,65.9,58.1,29.66,ESE,117,6.2,10.4,76,0.00,CLR,SKC,1.52,WeatherDisplay:10.37,2013-05-17 23:02:00,
2013-05-17 18:07:00,65.9,57.7,29.66,ESE,122,4.5,10.4,75,0.00,CLR,SKC,1.52,WeatherDisplay:10.37,2013-05-17 23:07:00,
2013-05-17 18:12:00,66.0,57.8,29.66,SE,125,6.7,10.4,75,0.00,CLR,SKC,1.52,WeatherDisplay:10.37,2013-05-17 23:12:00,
2013-05-17 18:17:00,66.0,57.8,29.66,ESE,115,3.3,8.1,75,0.00,CLR,SKC,1.52,WeatherDisplay:10.37,2013-05-17 23:17:00,
2013-05-17 18:22:00,66.0,58.2,29.66,ESE,116,4.0,8.1,76,0.00,CLR,SKC,1.52,WeatherDisplay:10.37,2013-05-17 23:22:00,
2013-05-17 18:27:00,66.1,57.9,29.66,SE,130,5.3,9.0,75,0.00,CLR,SKC,1.52,WeatherDisplay:10.37,2013-05-17 23:27:00,
2013-05-17 18:32:00,66.0,57.8,29.66,ESE,116,9.2,11.5,75,0.00,CLR,SKC,1.52,WeatherDisplay:10.37,2013-05-17 23:32:00,
2013-05-17 18:37:00,65.9,57.7,29.66,ESE,102,4.8,10.4,75,0.00,CLR,SKC,1.52,WeatherDisplay:10.37,2013-05-17 23:37:00,
2013-05-17 18:42:00,65.7,57.9,29.66,ESE,120,6.4,11.5,76,0.00,CLR,SKC,1.52,WeatherDisplay:10.37,2013-05-17 23:42:00,
2013-05-17 18:47:00,65.6,57.8,29.66,SE,127,6.0,11.5,76,0.00,CLR,SKC,1.52,WeatherDisplay:10.37,2013-05-17 23:47:00,
2013-05-17 18:52:00,65.4,58.0,29.66,ESE,105,4.3,7.0,77,0.00,CLR,SKC,1.52,WeatherDisplay:10.37,2013-05-17 23:52:00,
2013-05-17 18:57:00,65.3,57.5,29.65,East,101,8.0,11.5,76,0.00,CLR,SKC,1.52,WeatherDisplay:10.37,2013-05-17 23:57:00,
2013-05-17 19:02:00,65.0,57.6,29.65,ESE,107,8.3,12.0,77,0.00,CLR,SKC,1.52,WeatherDisplay:10.37,2013-05-18 00:02:00,
2013-05-17 19:07:00,64.7,57.3,29.66,ESE,105,7.5,10.4,77,0.00,CLR,SKC,1.52,WeatherDisplay:10.37,2013-05-18 00:07:00,
2013-05-17 19:12:00,64.5,57.1,29.66,ESE,116,6.2,10.4,77,0.00,CLR,SKC,1.52,WeatherDisplay:10.37,2013-05-18 00:12:00,
2013-05-17 19:17:00,64.3,56.9,29.66,ESE,102,6.9,10.4,77,0.00,CLR,SKC,1.52,WeatherDisplay:10.37,2013-05-18 00:17:00,
2013-05-17 19:22:00,64.1,57.1,29.66,ESE,103,5.7,8.0,78,0.00,CLR,SKC,1.52,WeatherDisplay:10.37,2013-05-18 00:22:00,
2013-05-17 19:27:00,63.9,56.9,29.65,ESE,109,7.1,11.0,78,0.00,CLR,SKC,1.52,WeatherDisplay:10.37,2013-05-18 00:27:00,
2013-05-17 19:32:00,63.7,56.7,29.66,ESE,111,4.9,9.2,78,0.00,CLR,SKC,1.52,WeatherDisplay:10.37,2013-05-18 00:32:00,
2013-05-17 19:37:00,63.7,56.4,29.66,SE,144,7.0,10.4,77,0.00,CLR,SKC,1.52,WeatherDisplay:10.37,2013-05-18 00:37:00,
2013-05-17 19:42:00,63.5,56.5,29.65,East,98,7.1,8.1,78,0.00,CLR,SKC,1.52,WeatherDisplay:10.37,2013-05-18 00:42:00,
2013-05-17 19:47:00,63.2,56.2,29.65,ESE,113,7.4,10.4,78,0.00,CLR,SKC,1.52,WeatherDisplay:10.37,2013-05-18 00:47:00,
2013-05-17 19:52:00,62.9,55.9,29.65,ESE,102,8.2,12.7,78,0.00,CLR,SKC,1.52,WeatherDisplay:10.37,2013-05-18 00:52:00,
2013-05-17 19:57:00,62.7,56.1,29.64,ESE,103,9.0,12.7,79,0.00,CLR,SKC,1.52,WeatherDisplay:10.37,2013-05-18 00:57:00,
2013-05-17 20:02:00,62.5,55.9,29.64,East,90,9.5,12.7,79,0.00,CLR,SKC,1.52,WeatherDisplay:10.37,2013-05-18 01:02:00,
2013-05-17 20:07:00,62.3,55.7,29.64,ESE,111,7.8,10.4,79,0.00,CLR,SKC,1.52,WeatherDisplay:10.37,2013-05-18 01:07:00,
2013-05-17 20:12:00,62.3,55.7,29.64,ESE,108,9.0,12.0,79,0.00,CLR,SKC,1.52,WeatherDisplay:10.37,2013-05-18 01:12:00,
2013-05-17 20:17:00,62.4,55.8,29.64,ESE,109,8.3,11.5,79,0.00,CLR,SKC,1.52,WeatherDisplay:10.37,2013-05-18 01:17:00,
2013-05-17 20:22:00,62.4,55.8,29.65,ESE,114,4.2,10.4,79,0.00,CLR,SKC,1.52,WeatherDisplay:10.37,2013-05-18 01:22:00,
2013-05-17 20:27:00,62.3,55.7,29.65,ENE,70,2.2,8.1,79,0.00,CLR,SKC,1.52,WeatherDisplay:10.37,2013-05-18 01:27:00,
2013-05-17 20:32:00,62.3,55.7,29.66,East,99,1.6,5.8,79,0.00,CLR,SKC,1.52,WeatherDisplay:10.37,2013-05-18 01:32:00,
2013-05-17 20:37:00,62.2,55.6,29.66,ESE,104,1.5,5.8,79,0.00,CLR,SKC,1.52,WeatherDisplay:10.37,2013-05-18 01:37:00,
2013-05-17 20:42:00,62.1,55.2,29.66,ESE,102,1.2,6.9,78,0.00,CLR,SKC,1.52,WeatherDisplay:10.37,2013-05-18 01:42:00,
2013-05-17 20:47:00,62.0,55.4,29.66,ESE,109,2.6,6.9,79,0.00,CLR,SKC,1.52,WeatherDisplay:10.37,2013-05-18 01:47:00,
2013-05-17 20:52:00,61.8,54.9,29.67,ESE,121,1.6,8.1,78,0.00,CLR,SKC,1.52,WeatherDisplay:10.37,2013-05-18 01:52:00,
2013-05-17 20:57:00,61.6,55.0,29.67,East,88,1.6,9.2,79,0.00,CLR,SKC,1.52,WeatherDisplay:10.37,2013-05-18 01:57:00,
2013-05-17 21:02:00,61.5,54.9,29.66,ESE,107,1.6,4.6,79,0.00,CLR,SKC,1.52,WeatherDisplay:10.37,2013-05-18 02:02:00,
2013-05-17 21:07:00,61.3,54.7,29.67,ESE,105,1.9,5.8,79,0.00,CLR,SKC,1.52,WeatherDisplay:10.37,2013-05-18 02:07:00,
2013-05-17 21:12:00,61.2,54.6,29.67,ESE,105,2.3,4.0,79,0.00,CLR,SKC,1.52,WeatherDisplay:10.37,2013-05-18 02:12:00,
2013-05-17 21:17:00,61.1,54.5,29.67,ENE,78,0.8,4.6,79,0.00,CLR,SKC,1.52,WeatherDisplay:10.37,2013-05-18 02:17:00,
2013-05-17 21:22:00,60.9,54.3,29.67,ENE,74,2.1,3.5,79,0.00,CLR,SKC,1.52,WeatherDisplay:10.37,2013-05-18 02:22:00,
2013-05-17 21:27:00,60.8,54.2,29.67,ENE,74,2.0,5.0,79,0.00,CLR,SKC,1.52,WeatherDisplay:10.37,2013-05-18 02:27:00,
2013-05-17 21:32:00,60.6,54.0,29.67,East,92,1.8,3.5,79,0.00,CLR,SKC,1.52,WeatherDisplay:10.37,2013-05-18 02:32:00,
2013-05-17 21:37:00,60.4,54.2,29.67,ESE,106,3.0,8.1,80,0.00,CLR,SKC,1.52,WeatherDisplay:10.37,2013-05-18 02:37:00,
2013-05-17 21:42:00,60.2,54.0,29.67,ESE,106,7.8,10.0,80,0.00,CLR,SKC,1.52,WeatherDisplay:10.37,2013-05-18 02:42:00,
2013-05-17 21:47:00,60.2,54.0,29.67,SE,138,9.2,11.5,80,0.00,CLR,SKC,1.52,WeatherDisplay:10.37,2013-05-18 02:47:00,
2013-05-17 21:52:00,60.2,54.0,29.68,ESE,103,7.4,12.0,80,0.00,CLR,SKC,1.52,WeatherDisplay:10.37,2013-05-18 02:52:00,
2013-05-17 21:57:00,60.1,53.9,29.68,ESE,123,8.7,12.7,80,0.00,CLR,SKC,1.52,WeatherDisplay:10.37,2013-05-18 02:57:00,
2013-05-17 22:02:00,60.0,53.8,29.68,ESE,107,7.8,11.5,80,0.00,CLR,SKC,1.52,WeatherDisplay:10.37,2013-05-18 03:02:00,
2013-05-17 22:07:00,60.0,53.8,29.68,ESE,103,6.3,9.2,80,0.00,CLR,SKC,1.52,WeatherDisplay:10.37,2013-05-18 03:07:00,
2013-05-17 22:12:00,60.0,53.8,29.69,ESE,107,6.0,9.2,80,0.00,CLR,SKC,1.52,WeatherDisplay:10.37,2013-05-18 03:12:00,
2013-05-17 22:17:00,60.0,53.8,29.69,ESE,111,4.8,9.2,80,0.00,CLR,SKC,1.52,WeatherDisplay:10.37,2013-05-18 03:17:00,
2013-05-17 22:22:00,60.0,53.8,29.69,ESE,110,5.4,8.1,80,0.00,CLR,SKC,1.52,WeatherDisplay:10.37,2013-05-18 03:22:00,
2013-05-17 22:27:00,59.9,53.7,29.69,ESE,113,3.6,6.9,80,0.00,CLR,SKC,1.52,WeatherDisplay:10.37,2013-05-18 03:27:00,
2013-05-17 22:32:00,59.8,53.6,29.69,SE,126,4.7,8.0,80,0.00,CLR,SKC,1.52,WeatherDisplay:10.37,2013-05-18 03:32:00,
2013-05-17 22:37:00,59.9,53.7,29.70,SE,125,5.9,9.2,80,0.00,CLR,SKC,1.52,WeatherDisplay:10.37,2013-05-18 03:37:00,
2013-05-17 22:42:00,60.0,53.8,29.70,ESE,115,6.1,9.0,80,0.00,SCT,SKC,1.52,WeatherDisplay:10.37,2013-05-18 03:42:00,
2013-05-17 22:47:00,60.1,53.9,29.70,SE,128,4.7,9.2,80,0.00,SCT,SKC,1.52,WeatherDisplay:10.37,2013-05-18 03:47:00,
2013-05-17 22:52:00,60.3,54.1,29.70,East,88,7.4,10.0,80,0.00,SCT,SKC,1.52,WeatherDisplay:10.37,2013-05-18 03:52:00,
2013-05-17 22:57:00,60.5,54.3,29.70,ESE,120,4.8,9.2,80,0.00,SCT,SKC,1.52,WeatherDisplay:10.37,2013-05-18 03:57:00,
2013-05-17 23:01:00,60.4,54.2,29.71,SE,128,5.5,8.1,80,0.00,OVC,SKC,1.52,WeatherDisplay:10.37,2013-05-18 04:01:00,
2013-05-17 23:03:00,60.4,54.2,29.71,ESE,117,5.3,8.1,80,0.00,OVC,SKC,1.52,WeatherDisplay:10.37,2013-05-18 04:03:00,
2013-05-17 23:04:00,60.4,54.2,29.71,ESE,116,5.6,9.2,80,0.00,OVC,SKC,1.52,WeatherDisplay:10.37,2013-05-18 04:04:00,
2013-05-17 23:06:00,60.4,54.2,29.71,SE,132,4.7,9.0,80,0.00,OVC,SKC,1.52,WeatherDisplay:10.37,2013-05-18 04:06:00,
2013-05-17 23:07:00,60.4,54.2,29.71,ESE,105,4.9,9.2,80,0.00,OVC,SKC,1.52,WeatherDisplay:10.37,2013-05-18 04:07:00,
2013-05-17 23:12:00,60.4,53.9,29.70,SSE,148,5.0,8.1,79,0.00,OVC,SKC,1.52,WeatherDisplay:10.37,2013-05-18 04:12:00,
2013-05-17 23:17:00,60.4,53.9,29.70,SE,130,6.6,10.4,79,0.00,OVC,SKC,1.52,WeatherDisplay:10.37,2013-05-18 04:17:00,
2013-05-17 23:22:00,60.3,53.8,29.70,ESE,118,6.4,9.2,79,0.00,BKN,SKC,1.52,WeatherDisplay:10.37,2013-05-18 04:22:00,
2013-05-17 23:27:00,60.2,53.7,29.71,SE,132,5.4,8.1,79,0.00,BKN,SKC,1.52,WeatherDisplay:10.37,2013-05-18 04:27:00,
2013-05-17 23:32:00,60.1,53.6,29.71,SE,126,5.4,8.1,79,0.00,BKN,SKC,1.52,WeatherDisplay:10.37,2013-05-18 04:32:00,
2013-05-17 23:37:00,60.0,53.5,29.71,ESE,121,4.5,8.1,79,0.00,BKN,SKC,1.52,WeatherDisplay:10.37,2013-05-18 04:37:00,
2013-05-17 23:42:00,59.9,53.7,29.71,SE,136,5.6,8.1,80,0.00,SCT,SKC,1.52,WeatherDisplay:10.37,2013-05-18 04:42:00,
2013-05-17 23:47:00,60.0,53.5,29.71,SE,129,5.0,8.1,79,0.00,SCT,SKC,1.52,WeatherDisplay:10.37,2013-05-18 04:47:00,
2013-05-17 23:52:00,59.9,53.4,29.71,ESE,123,4.2,6.9,79,0.00,SCT,SKC,1.52,WeatherDisplay:10.37,2013-05-18 04:52:00,
2013-05-17 23:57:00,59.8,53.6,29.71,ESE,121,3.8,7.0,80,0.00,SCT,SKC,1.52,WeatherDisplay:10.37,2013-05-18 04:57:00,